sensor_id;sensor_type;location;lat;lon;timestamp;temperature;humidity
4425;DHT22;2225;53.568;13.266;2023-04-24T00:01:08;13.60;94.00
4425;DHT22;2225;53.568;13.266;2023-04-24T00:03:35;13.50;94.10
4425;DHT22;2225;53.568;13.266;2023-04-24T00:06:02;13.50;94.20
4425;DHT22;2225;53.568;13.266;2023-04-24T00:08:29;13.50;94.30
4425;DHT22;2225;53.568;13.266;2023-04-24T00:10:56;13.40;94.30
4425;DHT22;2225;53.568;13.266;2023-04-24T00:13:23;13.40;94.40
4425;DHT22;2225;53.568;13.266;2023-04-24T00:15:50;13.40;94.60
4425;DHT22;2225;53.568;13.266;2023-04-24T00:18:17;13.40;94.80
4425;DHT22;2225;53.568;13.266;2023-04-24T00:20:44;13.40;94.80
4425;DHT22;2225;53.568;13.266;2023-04-24T00:23:11;13.40;95.00
4425;DHT22;2225;53.568;13.266;2023-04-24T00:25:38;13.30;95.00
4425;DHT22;2225;53.568;13.266;2023-04-24T00:28:05;13.30;95.20
4425;DHT22;2225;53.568;13.266;2023-04-24T00:30:32;13.30;95.40
4425;DHT22;2225;53.568;13.266;2023-04-24T00:32:59;13.30;95.40
4425;DHT22;2225;53.568;13.266;2023-04-24T00:35:26;13.30;95.50
4425;DHT22;2225;53.568;13.266;2023-04-24T00:37:53;13.30;95.40
4425;DHT22;2225;53.568;13.266;2023-04-24T00:40:21;13.30;95.50
4425;DHT22;2225;53.568;13.266;2023-04-24T00:42:48;13.30;95.50
4425;DHT22;2225;53.568;13.266;2023-04-24T00:45:16;13.30;95.60
4425;DHT22;2225;53.568;13.266;2023-04-24T00:47:43;13.20;95.70
4425;DHT22;2225;53.568;13.266;2023-04-24T00:50:10;13.30;95.80
4425;DHT22;2225;53.568;13.266;2023-04-24T00:52:39;13.20;95.80
4425;DHT22;2225;53.568;13.266;2023-04-24T00:55:08;13.20;96.00
4425;DHT22;2225;53.568;13.266;2023-04-24T00:57:35;13.20;96.00
4425;DHT22;2225;53.568;13.266;2023-04-24T01:00:02;13.20;96.00
4425;DHT22;2225;53.568;13.266;2023-04-24T01:02:32;13.20;96.10
4425;DHT22;2225;53.568;13.266;2023-04-24T01:05:01;13.20;96.10
4425;DHT22;2225;53.568;13.266;2023-04-24T01:07:28;13.20;96.20
4425;DHT22;2225;53.568;13.266;2023-04-24T01:09:55;13.20;96.10
4425;DHT22;2225;53.568;13.266;2023-04-24T01:12:24;13.20;96.00
4425;DHT22;2225;53.568;13.266;2023-04-24T01:14:51;13.30;96.00
4425;DHT22;2225;53.568;13.266;2023-04-24T01:17:18;13.30;96.10
4425;DHT22;2225;53.568;13.266;2023-04-24T01:19:46;13.30;96.10
4425;DHT22;2225;53.568;13.266;2023-04-24T01:22:14;13.30;96.10
4425;DHT22;2225;53.568;13.266;2023-04-24T01:24:43;13.30;96.10
4425;DHT22;2225;53.568;13.266;2023-04-24T01:27:11;13.30;96.10
4425;DHT22;2225;53.568;13.266;2023-04-24T01:29:38;13.40;96.30
4425;DHT22;2225;53.568;13.266;2023-04-24T01:32:06;13.40;96.40
4425;DHT22;2225;53.568;13.266;2023-04-24T01:34:34;13.40;96.50
4425;DHT22;2225;53.568;13.266;2023-04-24T01:37:01;13.40;96.80
4425;DHT22;2225;53.568;13.266;2023-04-24T01:39:28;13.40;96.90
4425;DHT22;2225;53.568;13.266;2023-04-24T01:41:55;13.40;96.90
4425;DHT22;2225;53.568;13.266;2023-04-24T01:44:23;13.30;96.80
4425;DHT22;2225;53.568;13.266;2023-04-24T01:46:50;13.40;97.00
4425;DHT22;2225;53.568;13.266;2023-04-24T01:49:17;13.40;97.00
4425;DHT22;2225;53.568;13.266;2023-04-24T01:51:44;13.50;97.10
4425;DHT22;2225;53.568;13.266;2023-04-24T01:54:12;13.50;97.30
4425;DHT22;2225;53.568;13.266;2023-04-24T01:56:42;13.50;97.40
4425;DHT22;2225;53.568;13.266;2023-04-24T01:59:13;13.60;97.50
4425;DHT22;2225;53.568;13.266;2023-04-24T02:01:39;13.60;97.60
4425;DHT22;2225;53.568;13.266;2023-04-24T02:04:07;13.60;97.30
4425;DHT22;2225;53.568;13.266;2023-04-24T02:06:35;13.60;97.50
4425;DHT22;2225;53.568;13.266;2023-04-24T02:09:02;13.60;97.70
4425;DHT22;2225;53.568;13.266;2023-04-24T02:11:30;13.70;97.70
4425;DHT22;2225;53.568;13.266;2023-04-24T02:13:57;13.70;97.50
4425;DHT22;2225;53.568;13.266;2023-04-24T02:16:24;13.70;97.60
4425;DHT22;2225;53.568;13.266;2023-04-24T02:18:51;13.70;97.70
4425;DHT22;2225;53.568;13.266;2023-04-24T02:21:18;13.70;97.70
4425;DHT22;2225;53.568;13.266;2023-04-24T02:23:45;13.80;97.80
4425;DHT22;2225;53.568;13.266;2023-04-24T02:26:12;13.80;97.70
4425;DHT22;2225;53.568;13.266;2023-04-24T02:28:39;13.80;97.70
4425;DHT22;2225;53.568;13.266;2023-04-24T02:31:06;13.80;97.90
4425;DHT22;2225;53.568;13.266;2023-04-24T02:33:33;13.90;97.60
4425;DHT22;2225;53.568;13.266;2023-04-24T02:36:00;13.90;97.70
4425;DHT22;2225;53.568;13.266;2023-04-24T02:38:28;13.90;97.90
4425;DHT22;2225;53.568;13.266;2023-04-24T02:40:55;13.90;97.70
4425;DHT22;2225;53.568;13.266;2023-04-24T02:43:22;14.00;97.90
4425;DHT22;2225;53.568;13.266;2023-04-24T02:45:49;14.00;97.80
4425;DHT22;2225;53.568;13.266;2023-04-24T02:48:16;14.00;97.70
4425;DHT22;2225;53.568;13.266;2023-04-24T02:50:44;14.00;97.80
4425;DHT22;2225;53.568;13.266;2023-04-24T02:53:10;14.00;97.80
4425;DHT22;2225;53.568;13.266;2023-04-24T02:55:37;14.10;97.60
4425;DHT22;2225;53.568;13.266;2023-04-24T02:58:04;14.00;98.00
4425;DHT22;2225;53.568;13.266;2023-04-24T03:00:32;14.00;98.10
4425;DHT22;2225;53.568;13.266;2023-04-24T03:02:59;14.10;98.00
4425;DHT22;2225;53.568;13.266;2023-04-24T03:05:26;14.00;97.90
4425;DHT22;2225;53.568;13.266;2023-04-24T03:07:53;14.10;97.80
4425;DHT22;2225;53.568;13.266;2023-04-24T03:10:20;14.10;97.80
4425;DHT22;2225;53.568;13.266;2023-04-24T03:12:49;14.10;97.70
4425;DHT22;2225;53.568;13.266;2023-04-24T03:15:17;14.10;97.60
4425;DHT22;2225;53.568;13.266;2023-04-24T03:17:44;14.20;97.70
4425;DHT22;2225;53.568;13.266;2023-04-24T03:20:12;14.20;97.60
4425;DHT22;2225;53.568;13.266;2023-04-24T03:22:39;14.30;97.50
4425;DHT22;2225;53.568;13.266;2023-04-24T03:25:07;14.30;97.50
4425;DHT22;2225;53.568;13.266;2023-04-24T03:27:36;14.30;97.40
4425;DHT22;2225;53.568;13.266;2023-04-24T03:30:11;14.30;97.30
4425;DHT22;2225;53.568;13.266;2023-04-24T03:32:43;14.30;97.30
4425;DHT22;2225;53.568;13.266;2023-04-24T03:35:14;14.40;97.40
4425;DHT22;2225;53.568;13.266;2023-04-24T03:37:41;14.40;97.40
4425;DHT22;2225;53.568;13.266;2023-04-24T03:40:26;14.40;97.90
4425;DHT22;2225;53.568;13.266;2023-04-24T03:42:56;14.40;98.00
4425;DHT22;2225;53.568;13.266;2023-04-24T03:45:23;14.40;98.10
4425;DHT22;2225;53.568;13.266;2023-04-24T03:47:51;14.40;98.40
4425;DHT22;2225;53.568;13.266;2023-04-24T03:50:18;14.50;99.00
4425;DHT22;2225;53.568;13.266;2023-04-24T03:52:46;14.40;99.30
4425;DHT22;2225;53.568;13.266;2023-04-24T03:55:22;14.40;99.60
4425;DHT22;2225;53.568;13.266;2023-04-24T03:57:49;14.40;99.80
4425;DHT22;2225;53.568;13.266;2023-04-24T04:00:21;14.40;99.90
4425;DHT22;2225;53.568;13.266;2023-04-24T04:02:58;14.40;99.90
4425;DHT22;2225;53.568;13.266;2023-04-24T04:05:25;14.40;99.90
4425;DHT22;2225;53.568;13.266;2023-04-24T04:07:52;14.40;99.90
4425;DHT22;2225;53.568;13.266;2023-04-24T04:10:20;14.50;99.90
4425;DHT22;2225;53.568;13.266;2023-04-24T04:12:46;14.50;99.90
4425;DHT22;2225;53.568;13.266;2023-04-24T04:15:13;14.60;99.70
4425;DHT22;2225;53.568;13.266;2023-04-24T04:17:41;14.60;99.60
4425;DHT22;2225;53.568;13.266;2023-04-24T04:20:10;14.70;99.40
4425;DHT22;2225;53.568;13.266;2023-04-24T04:22:39;14.80;99.30
4425;DHT22;2225;53.568;13.266;2023-04-24T04:25:12;14.80;99.20
4425;DHT22;2225;53.568;13.266;2023-04-24T04:27:40;14.90;99.20
4425;DHT22;2225;53.568;13.266;2023-04-24T04:30:10;14.90;99.30
4425;DHT22;2225;53.568;13.266;2023-04-24T04:32:46;14.90;99.30
4425;DHT22;2225;53.568;13.266;2023-04-24T04:35:14;14.90;99.20
4425;DHT22;2225;53.568;13.266;2023-04-24T04:37:40;15.00;99.20
4425;DHT22;2225;53.568;13.266;2023-04-24T04:40:20;15.00;99.20
4425;DHT22;2225;53.568;13.266;2023-04-24T04:42:51;15.10;99.20
4425;DHT22;2225;53.568;13.266;2023-04-24T04:45:21;15.10;99.00
4425;DHT22;2225;53.568;13.266;2023-04-24T04:48:10;15.20;99.10
4425;DHT22;2225;53.568;13.266;2023-04-24T04:50:40;15.20;98.90
4425;DHT22;2225;53.568;13.266;2023-04-24T04:53:07;15.30;98.90
4425;DHT22;2225;53.568;13.266;2023-04-24T04:55:37;15.30;98.80
4425;DHT22;2225;53.568;13.266;2023-04-24T04:58:13;15.30;98.80
4425;DHT22;2225;53.568;13.266;2023-04-24T05:00:40;15.40;98.80
4425;DHT22;2225;53.568;13.266;2023-04-24T05:03:18;15.30;99.10
4425;DHT22;2225;53.568;13.266;2023-04-24T05:05:50;15.40;98.80
4425;DHT22;2225;53.568;13.266;2023-04-24T05:08:17;15.40;98.70
4425;DHT22;2225;53.568;13.266;2023-04-24T05:10:54;15.40;98.70
4425;DHT22;2225;53.568;13.266;2023-04-24T05:13:22;15.40;98.70
4425;DHT22;2225;53.568;13.266;2023-04-24T05:16:08;15.40;99.00
4425;DHT22;2225;53.568;13.266;2023-04-24T05:18:35;15.50;98.60
4425;DHT22;2225;53.568;13.266;2023-04-24T05:21:02;15.50;98.60
4425;DHT22;2225;53.568;13.266;2023-04-24T05:23:30;15.50;98.70
4425;DHT22;2225;53.568;13.266;2023-04-24T05:25:57;15.50;98.60
4425;DHT22;2225;53.568;13.266;2023-04-24T05:28:24;15.50;98.60
4425;DHT22;2225;53.568;13.266;2023-04-24T05:31:03;15.60;98.60
4425;DHT22;2225;53.568;13.266;2023-04-24T05:33:31;15.60;98.50
4425;DHT22;2225;53.568;13.266;2023-04-24T05:35:58;15.70;98.50
4425;DHT22;2225;53.568;13.266;2023-04-24T05:38:25;15.80;98.50
4425;DHT22;2225;53.568;13.266;2023-04-24T05:40:52;15.80;98.40
4425;DHT22;2225;53.568;13.266;2023-04-24T05:43:19;15.90;98.20
4425;DHT22;2225;53.568;13.266;2023-04-24T05:45:46;16.00;98.10
4425;DHT22;2225;53.568;13.266;2023-04-24T05:48:13;16.00;98.10
4425;DHT22;2225;53.568;13.266;2023-04-24T05:50:40;16.10;98.00
4425;DHT22;2225;53.568;13.266;2023-04-24T05:53:07;16.20;97.80
4425;DHT22;2225;53.568;13.266;2023-04-24T05:55:36;16.20;97.60
4425;DHT22;2225;53.568;13.266;2023-04-24T05:58:03;16.30;97.60
4425;DHT22;2225;53.568;13.266;2023-04-24T06:00:31;16.40;97.40
4425;DHT22;2225;53.568;13.266;2023-04-24T06:03:04;16.40;97.30
4425;DHT22;2225;53.568;13.266;2023-04-24T06:05:32;16.50;97.20
4425;DHT22;2225;53.568;13.266;2023-04-24T06:08:01;16.50;97.00
4425;DHT22;2225;53.568;13.266;2023-04-24T06:10:33;16.60;96.90
4425;DHT22;2225;53.568;13.266;2023-04-24T06:13:00;16.60;96.80
4425;DHT22;2225;53.568;13.266;2023-04-24T06:15:30;16.70;96.70
4425;DHT22;2225;53.568;13.266;2023-04-24T06:18:09;16.70;96.60
4425;DHT22;2225;53.568;13.266;2023-04-24T06:20:40;16.80;96.60
4425;DHT22;2225;53.568;13.266;2023-04-24T06:23:08;16.80;96.30
4425;DHT22;2225;53.568;13.266;2023-04-24T06:25:35;16.90;96.40
4425;DHT22;2225;53.568;13.266;2023-04-24T06:28:03;16.90;96.30
4425;DHT22;2225;53.568;13.266;2023-04-24T06:30:30;17.00;96.20
4425;DHT22;2225;53.568;13.266;2023-04-24T06:32:57;17.00;96.20
4425;DHT22;2225;53.568;13.266;2023-04-24T06:35:38;17.10;95.90
4425;DHT22;2225;53.568;13.266;2023-04-24T06:38:05;17.10;95.80
4425;DHT22;2225;53.568;13.266;2023-04-24T06:40:32;17.20;95.70
4425;DHT22;2225;53.568;13.266;2023-04-24T06:42:59;17.20;95.70
4425;DHT22;2225;53.568;13.266;2023-04-24T06:45:29;17.30;95.60
4425;DHT22;2225;53.568;13.266;2023-04-24T06:47:56;17.40;95.40
4425;DHT22;2225;53.568;13.266;2023-04-24T06:50:24;17.40;95.10
4425;DHT22;2225;53.568;13.266;2023-04-24T06:52:51;17.40;94.90
4425;DHT22;2225;53.568;13.266;2023-04-24T06:55:18;17.50;94.90
4425;DHT22;2225;53.568;13.266;2023-04-24T06:57:45;17.60;94.70
4425;DHT22;2225;53.568;13.266;2023-04-24T07:00:12;17.60;94.30
4425;DHT22;2225;53.568;13.266;2023-04-24T07:02:39;17.60;94.20
4425;DHT22;2225;53.568;13.266;2023-04-24T07:05:07;17.70;94.20
4425;DHT22;2225;53.568;13.266;2023-04-24T07:07:34;17.70;93.90
4425;DHT22;2225;53.568;13.266;2023-04-24T07:10:05;17.70;94.10
4425;DHT22;2225;53.568;13.266;2023-04-24T07:12:32;17.80;94.30
4425;DHT22;2225;53.568;13.266;2023-04-24T07:15:00;17.90;94.10
4425;DHT22;2225;53.568;13.266;2023-04-24T07:17:27;18.00;93.90
4425;DHT22;2225;53.568;13.266;2023-04-24T07:19:54;18.10;93.60
4425;DHT22;2225;53.568;13.266;2023-04-24T07:22:21;18.20;93.20
4425;DHT22;2225;53.568;13.266;2023-04-24T07:24:47;18.30;92.90
4425;DHT22;2225;53.568;13.266;2023-04-24T07:27:14;18.40;92.70
4425;DHT22;2225;53.568;13.266;2023-04-24T07:29:42;18.40;92.20
4425;DHT22;2225;53.568;13.266;2023-04-24T07:32:09;18.50;92.00
4425;DHT22;2225;53.568;13.266;2023-04-24T07:34:36;18.60;91.30
4425;DHT22;2225;53.568;13.266;2023-04-24T07:37:03;18.60;91.20
4425;DHT22;2225;53.568;13.266;2023-04-24T07:39:30;18.70;90.80
4425;DHT22;2225;53.568;13.266;2023-04-24T07:41:57;18.70;90.90
4425;DHT22;2225;53.568;13.266;2023-04-24T07:44:25;18.70;91.10
4425;DHT22;2225;53.568;13.266;2023-04-24T07:46:53;18.80;90.80
4425;DHT22;2225;53.568;13.266;2023-04-24T07:49:20;18.90;90.50
4425;DHT22;2225;53.568;13.266;2023-04-24T07:51:47;19.00;90.50
4425;DHT22;2225;53.568;13.266;2023-04-24T07:54:14;19.00;90.20
4425;DHT22;2225;53.568;13.266;2023-04-24T07:56:41;19.10;90.10
4425;DHT22;2225;53.568;13.266;2023-04-24T07:59:10;19.10;89.60
4425;DHT22;2225;53.568;13.266;2023-04-24T08:01:37;19.20;89.90
4425;DHT22;2225;53.568;13.266;2023-04-24T08:04:04;19.20;89.80
4425;DHT22;2225;53.568;13.266;2023-04-24T08:06:32;19.20;90.00
4425;DHT22;2225;53.568;13.266;2023-04-24T08:09:00;19.30;89.80
4425;DHT22;2225;53.568;13.266;2023-04-24T08:11:27;19.30;89.50
4425;DHT22;2225;53.568;13.266;2023-04-24T08:13:54;19.40;89.00
4425;DHT22;2225;53.568;13.266;2023-04-24T08:16:21;19.40;88.70
4425;DHT22;2225;53.568;13.266;2023-04-24T08:18:51;19.40;88.70
4425;DHT22;2225;53.568;13.266;2023-04-24T08:21:18;19.50;88.70
4425;DHT22;2225;53.568;13.266;2023-04-24T08:23:46;19.60;88.60
4425;DHT22;2225;53.568;13.266;2023-04-24T08:26:13;19.70;88.60
4425;DHT22;2225;53.568;13.266;2023-04-24T08:28:40;19.70;85.70
4425;DHT22;2225;53.568;13.266;2023-04-24T08:31:07;19.80;85.00
4425;DHT22;2225;53.568;13.266;2023-04-24T08:33:34;19.80;85.30
4425;DHT22;2225;53.568;13.266;2023-04-24T08:36:03;19.90;86.00
4425;DHT22;2225;53.568;13.266;2023-04-24T08:38:30;19.90;85.20
4425;DHT22;2225;53.568;13.266;2023-04-24T08:40:58;20.00;84.60
4425;DHT22;2225;53.568;13.266;2023-04-24T08:43:27;20.10;84.70
4425;DHT22;2225;53.568;13.266;2023-04-24T08:45:56;20.10;81.70
4425;DHT22;2225;53.568;13.266;2023-04-24T08:48:23;20.20;79.30
4425;DHT22;2225;53.568;13.266;2023-04-24T08:50:58;20.20;79.50
4425;DHT22;2225;53.568;13.266;2023-04-24T08:53:26;20.20;79.60
4425;DHT22;2225;53.568;13.266;2023-04-24T08:55:55;20.20;79.00
4425;DHT22;2225;53.568;13.266;2023-04-24T08:58:25;20.20;79.70
4425;DHT22;2225;53.568;13.266;2023-04-24T09:00:56;20.20;80.00
4425;DHT22;2225;53.568;13.266;2023-04-24T09:03:24;20.30;79.90
4425;DHT22;2225;53.568;13.266;2023-04-24T09:05:55;20.40;79.80
4425;DHT22;2225;53.568;13.266;2023-04-24T09:08:24;20.50;74.90
4425;DHT22;2225;53.568;13.266;2023-04-24T09:10:52;20.60;75.00
4425;DHT22;2225;53.568;13.266;2023-04-24T09:13:22;20.60;72.20
4425;DHT22;2225;53.568;13.266;2023-04-24T09:15:49;20.70;73.00
4425;DHT22;2225;53.568;13.266;2023-04-24T09:18:16;20.80;72.50
4425;DHT22;2225;53.568;13.266;2023-04-24T09:21:04;20.80;73.30
4425;DHT22;2225;53.568;13.266;2023-04-24T09:23:34;20.80;72.90
4425;DHT22;2225;53.568;13.266;2023-04-24T09:26:02;20.90;74.20
4425;DHT22;2225;53.568;13.266;2023-04-24T09:28:39;21.00;74.90
4425;DHT22;2225;53.568;13.266;2023-04-24T09:31:12;21.10;73.70
4425;DHT22;2225;53.568;13.266;2023-04-24T09:36:33;21.30;74.20
4425;DHT22;2225;53.568;13.266;2023-04-24T09:39:06;21.40;73.70
4425;DHT22;2225;53.568;13.266;2023-04-24T09:41:53;21.40;73.50
4425;DHT22;2225;53.568;13.266;2023-04-24T09:44:26;21.40;73.50
4425;DHT22;2225;53.568;13.266;2023-04-24T09:46:56;21.50;74.70
4425;DHT22;2225;53.568;13.266;2023-04-24T09:49:26;21.50;73.80
4425;DHT22;2225;53.568;13.266;2023-04-24T09:52:10;21.60;73.60
4425;DHT22;2225;53.568;13.266;2023-04-24T09:54:38;21.60;72.80
4425;DHT22;2225;53.568;13.266;2023-04-24T09:57:07;21.70;73.10
4425;DHT22;2225;53.568;13.266;2023-04-24T09:59:38;21.70;72.80
4425;DHT22;2225;53.568;13.266;2023-04-24T10:02:19;21.70;72.90
4425;DHT22;2225;53.568;13.266;2023-04-24T10:04:57;21.80;73.30
4425;DHT22;2225;53.568;13.266;2023-04-24T10:07:26;21.80;72.40
4425;DHT22;2225;53.568;13.266;2023-04-24T10:09:54;21.80;73.20
4425;DHT22;2225;53.568;13.266;2023-04-24T10:12:21;21.90;72.80
4425;DHT22;2225;53.568;13.266;2023-04-24T10:14:49;21.90;73.00
4425;DHT22;2225;53.568;13.266;2023-04-24T10:17:17;22.00;71.90
4425;DHT22;2225;53.568;13.266;2023-04-24T10:19:45;22.10;71.90
4425;DHT22;2225;53.568;13.266;2023-04-24T10:22:14;22.20;71.30
4425;DHT22;2225;53.568;13.266;2023-04-24T10:24:43;22.30;71.80
4425;DHT22;2225;53.568;13.266;2023-04-24T10:27:11;22.30;70.50
4425;DHT22;2225;53.568;13.266;2023-04-24T10:29:43;22.30;68.60
4425;DHT22;2225;53.568;13.266;2023-04-24T10:32:11;22.20;68.20
4425;DHT22;2225;53.568;13.266;2023-04-24T10:34:38;22.10;68.50
4425;DHT22;2225;53.568;13.266;2023-04-24T10:37:05;22.10;69.00
4425;DHT22;2225;53.568;13.266;2023-04-24T10:39:32;22.10;69.60
4425;DHT22;2225;53.568;13.266;2023-04-24T10:42:00;22.10;70.00
4425;DHT22;2225;53.568;13.266;2023-04-24T10:44:35;22.20;69.30
4425;DHT22;2225;53.568;13.266;2023-04-24T10:47:03;22.30;70.40
4425;DHT22;2225;53.568;13.266;2023-04-24T10:49:31;22.40;69.20
4425;DHT22;2225;53.568;13.266;2023-04-24T10:52:04;22.50;68.60
4425;DHT22;2225;53.568;13.266;2023-04-24T10:54:45;22.60;67.60
4425;DHT22;2225;53.568;13.266;2023-04-24T10:59:47;22.80;67.90
4425;DHT22;2225;53.568;13.266;2023-04-24T11:02:39;22.90;68.70
4425;DHT22;2225;53.568;13.266;2023-04-24T11:05:07;23.10;68.10
4425;DHT22;2225;53.568;13.266;2023-04-24T11:11:01;23.30;64.40
4425;DHT22;2225;53.568;13.266;2023-04-24T11:16:27;23.30;65.10
4425;DHT22;2225;53.568;13.266;2023-04-24T11:21:58;23.40;63.80
4425;DHT22;2225;53.568;13.266;2023-04-24T11:24:49;23.50;65.40
4425;DHT22;2225;53.568;13.266;2023-04-24T11:27:23;23.60;65.70
4425;DHT22;2225;53.568;13.266;2023-04-24T11:35:03;23.70;63.90
4425;DHT22;2225;53.568;13.266;2023-04-24T11:37:37;23.80;63.20
4425;DHT22;2225;53.568;13.266;2023-04-24T11:40:10;23.80;62.20
4425;DHT22;2225;53.568;13.266;2023-04-24T11:42:44;23.80;59.70
4425;DHT22;2225;53.568;13.266;2023-04-24T11:45:17;23.80;60.80
4425;DHT22;2225;53.568;13.266;2023-04-24T11:47:45;23.80;59.70
4425;DHT22;2225;53.568;13.266;2023-04-24T11:50:17;23.70;59.80
4425;DHT22;2225;53.568;13.266;2023-04-24T11:52:46;23.70;59.90
4425;DHT22;2225;53.568;13.266;2023-04-24T11:57:53;23.50;59.70
4425;DHT22;2225;53.568;13.266;2023-04-24T12:00:31;23.50;59.80
4425;DHT22;2225;53.568;13.266;2023-04-24T12:03:10;23.40;59.80
4425;DHT22;2225;53.568;13.266;2023-04-24T12:05:39;23.20;60.10
4425;DHT22;2225;53.568;13.266;2023-04-24T12:08:07;23.10;62.10
4425;DHT22;2225;53.568;13.266;2023-04-24T12:10:34;23.00;65.00
4425;DHT22;2225;53.568;13.266;2023-04-24T12:13:01;22.80;67.50
4425;DHT22;2225;53.568;13.266;2023-04-24T12:15:29;22.70;69.80
4425;DHT22;2225;53.568;13.266;2023-04-24T12:17:56;22.50;72.60
4425;DHT22;2225;53.568;13.266;2023-04-24T12:20:28;22.10;74.70
4425;DHT22;2225;53.568;13.266;2023-04-24T12:22:57;21.90;77.90
4425;DHT22;2225;53.568;13.266;2023-04-24T12:25:27;21.60;79.40
4425;DHT22;2225;53.568;13.266;2023-04-24T12:28:09;21.20;80.50
4425;DHT22;2225;53.568;13.266;2023-04-24T12:30:47;21.00;81.60
4425;DHT22;2225;53.568;13.266;2023-04-24T12:33:19;20.70;81.90
4425;DHT22;2225;53.568;13.266;2023-04-24T12:35:48;20.60;83.20
4425;DHT22;2225;53.568;13.266;2023-04-24T12:38:22;20.40;83.00
4425;DHT22;2225;53.568;13.266;2023-04-24T12:41:09;20.30;84.40
4425;DHT22;2225;53.568;13.266;2023-04-24T12:43:38;20.30;86.90
4425;DHT22;2225;53.568;13.266;2023-04-24T12:46:17;20.20;85.70
4425;DHT22;2225;53.568;13.266;2023-04-24T12:48:47;20.30;86.40
4425;DHT22;2225;53.568;13.266;2023-04-24T12:51:14;20.30;86.20
4425;DHT22;2225;53.568;13.266;2023-04-24T12:53:41;20.30;86.70
4425;DHT22;2225;53.568;13.266;2023-04-24T12:56:08;20.30;86.60
4425;DHT22;2225;53.568;13.266;2023-04-24T12:58:35;20.40;86.40
4425;DHT22;2225;53.568;13.266;2023-04-24T13:01:02;20.40;86.60
4425;DHT22;2225;53.568;13.266;2023-04-24T13:03:29;20.50;86.30
4425;DHT22;2225;53.568;13.266;2023-04-24T13:05:56;20.50;85.70
4425;DHT22;2225;53.568;13.266;2023-04-24T13:08:23;20.50;85.20
4425;DHT22;2225;53.568;13.266;2023-04-24T13:10:50;20.50;85.00
4425;DHT22;2225;53.568;13.266;2023-04-24T13:13:18;20.40;85.40
4425;DHT22;2225;53.568;13.266;2023-04-24T13:15:45;20.40;85.70
4425;DHT22;2225;53.568;13.266;2023-04-24T13:18:12;20.30;86.00
4425;DHT22;2225;53.568;13.266;2023-04-24T13:20:39;20.30;85.00
4425;DHT22;2225;53.568;13.266;2023-04-24T13:23:07;20.10;84.80
4425;DHT22;2225;53.568;13.266;2023-04-24T13:25:35;19.90;83.50
4425;DHT22;2225;53.568;13.266;2023-04-24T13:28:03;19.80;84.40
4425;DHT22;2225;53.568;13.266;2023-04-24T13:30:31;19.60;84.90
4425;DHT22;2225;53.568;13.266;2023-04-24T13:32:58;19.50;85.40
4425;DHT22;2225;53.568;13.266;2023-04-24T13:35:25;19.30;86.20
4425;DHT22;2225;53.568;13.266;2023-04-24T13:37:52;19.10;86.80
4425;DHT22;2225;53.568;13.266;2023-04-24T13:40:19;19.00;87.10
4425;DHT22;2225;53.568;13.266;2023-04-24T13:42:46;18.90;87.90
4425;DHT22;2225;53.568;13.266;2023-04-24T13:45:13;18.80;88.20
4425;DHT22;2225;53.568;13.266;2023-04-24T13:47:50;18.70;89.20
4425;DHT22;2225;53.568;13.266;2023-04-24T13:50:18;18.70;89.60
4425;DHT22;2225;53.568;13.266;2023-04-24T13:52:45;18.60;89.70
4425;DHT22;2225;53.568;13.266;2023-04-24T13:55:12;18.60;90.10
4425;DHT22;2225;53.568;13.266;2023-04-24T13:57:39;18.50;89.90
4425;DHT22;2225;53.568;13.266;2023-04-24T14:00:07;18.60;90.50
4425;DHT22;2225;53.568;13.266;2023-04-24T14:02:36;18.50;90.50
4425;DHT22;2225;53.568;13.266;2023-04-24T14:05:04;18.50;90.70
4425;DHT22;2225;53.568;13.266;2023-04-24T14:07:32;18.50;90.80
4425;DHT22;2225;53.568;13.266;2023-04-24T14:09:59;18.50;90.90
4425;DHT22;2225;53.568;13.266;2023-04-24T14:12:26;18.50;91.30
4425;DHT22;2225;53.568;13.266;2023-04-24T14:14:53;18.50;91.40
4425;DHT22;2225;53.568;13.266;2023-04-24T14:17:20;18.60;91.50
4425;DHT22;2225;53.568;13.266;2023-04-24T14:19:47;18.60;91.20
4425;DHT22;2225;53.568;13.266;2023-04-24T14:22:14;18.60;91.00
4425;DHT22;2225;53.568;13.266;2023-04-24T14:24:41;18.70;91.20
4425;DHT22;2225;53.568;13.266;2023-04-24T14:27:08;18.80;90.80
4425;DHT22;2225;53.568;13.266;2023-04-24T14:29:35;18.80;90.80
4425;DHT22;2225;53.568;13.266;2023-04-24T14:32:02;18.90;90.50
4425;DHT22;2225;53.568;13.266;2023-04-24T14:34:29;18.90;90.30
4425;DHT22;2225;53.568;13.266;2023-04-24T14:36:56;19.00;90.30
4425;DHT22;2225;53.568;13.266;2023-04-24T14:39:23;19.00;90.30
4425;DHT22;2225;53.568;13.266;2023-04-24T14:41:50;19.00;90.30
4425;DHT22;2225;53.568;13.266;2023-04-24T14:44:17;19.10;89.70
4425;DHT22;2225;53.568;13.266;2023-04-24T14:46:43;19.10;89.70
4425;DHT22;2225;53.568;13.266;2023-04-24T14:49:10;19.10;89.00
4425;DHT22;2225;53.568;13.266;2023-04-24T14:51:38;19.10;88.90
4425;DHT22;2225;53.568;13.266;2023-04-24T14:54:06;19.20;89.00
4425;DHT22;2225;53.568;13.266;2023-04-24T14:56:33;19.20;88.50
4425;DHT22;2225;53.568;13.266;2023-04-24T14:59:00;19.30;87.90
4425;DHT22;2225;53.568;13.266;2023-04-24T15:01:26;19.40;88.10
4425;DHT22;2225;53.568;13.266;2023-04-24T15:03:53;19.40;88.30
4425;DHT22;2225;53.568;13.266;2023-04-24T15:06:21;19.50;88.10
4425;DHT22;2225;53.568;13.266;2023-04-24T15:08:48;19.60;87.20
4425;DHT22;2225;53.568;13.266;2023-04-24T15:11:16;19.70;87.00
4425;DHT22;2225;53.568;13.266;2023-04-24T15:13:43;19.80;86.40
4425;DHT22;2225;53.568;13.266;2023-04-24T15:16:14;20.00;85.90
4425;DHT22;2225;53.568;13.266;2023-04-24T15:18:41;20.10;85.90
4425;DHT22;2225;53.568;13.266;2023-04-24T15:21:08;20.20;85.00
4425;DHT22;2225;53.568;13.266;2023-04-24T15:23:35;20.20;83.90
4425;DHT22;2225;53.568;13.266;2023-04-24T15:26:01;20.30;83.80
4425;DHT22;2225;53.568;13.266;2023-04-24T15:28:28;20.40;83.20
4425;DHT22;2225;53.568;13.266;2023-04-24T15:30:55;20.40;82.80
4425;DHT22;2225;53.568;13.266;2023-04-24T15:33:22;20.40;82.60
4425;DHT22;2225;53.568;13.266;2023-04-24T15:35:50;20.50;82.20
4425;DHT22;2225;53.568;13.266;2023-04-24T15:38:17;20.40;81.30
4425;DHT22;2225;53.568;13.266;2023-04-24T15:40:44;20.40;81.30
4425;DHT22;2225;53.568;13.266;2023-04-24T15:43:11;20.40;80.80
4425;DHT22;2225;53.568;13.266;2023-04-24T15:45:38;20.40;81.30
4425;DHT22;2225;53.568;13.266;2023-04-24T15:48:05;20.40;81.50
4425;DHT22;2225;53.568;13.266;2023-04-24T15:50:32;20.30;81.40
4425;DHT22;2225;53.568;13.266;2023-04-24T15:52:59;20.40;81.60
4425;DHT22;2225;53.568;13.266;2023-04-24T15:55:27;20.40;81.10
4425;DHT22;2225;53.568;13.266;2023-04-24T15:57:54;20.30;81.00
4425;DHT22;2225;53.568;13.266;2023-04-24T16:00:21;20.30;81.00
4425;DHT22;2225;53.568;13.266;2023-04-24T16:02:48;20.20;80.90
4425;DHT22;2225;53.568;13.266;2023-04-24T16:05:17;20.20;81.10
4425;DHT22;2225;53.568;13.266;2023-04-24T16:07:45;20.20;81.10
4425;DHT22;2225;53.568;13.266;2023-04-24T16:10:12;20.20;81.30
4425;DHT22;2225;53.568;13.266;2023-04-24T16:12:39;20.10;81.80
4425;DHT22;2225;53.568;13.266;2023-04-24T16:15:06;20.10;81.70
4425;DHT22;2225;53.568;13.266;2023-04-24T16:17:33;20.10;81.30